Time;durP1;ratioP1;P1;durP2;ratioP2;P2;SDS_P1;SDS_P2;PMS_P1;PMS_P2;Temp;Humidity;BMP_temperature;BMP_pressure;BME280_temperature;BME280_humidity;BME280_pressure;Samples;Min_cycle;Max_cycle;Signal;HPM_P1;HPM_P2
2021/10/25 00:00:52;;;;;;;0.10;0.10;;;;;;;;;;4981780;28;20092;-90
2021/10/25 00:03:18;;;;;;;0.10;0.10;;;;;;;;;;4965664;28;20096;-88
2021/10/25 00:05:44;;;;;;;0.10;0.10;;;;;;;;;;4981611;28;20508;-90
2021/10/25 00:08:13;;;;;;;0.10;0.10;;;;;;;;;;4965663;28;20521;-89
2021/10/25 00:10:39;;;;;;;0.10;0.10;;;;;;;;;;4981467;28;20235;-90
2021/10/25 00:13:05;;;;;;;0.10;0.10;;;;;;;;;;4981788;28;20395;-89
2021/10/25 00:15:31;;;;;;;0.10;0.10;;;;;;;;;;4997427;28;20038;-89
2021/10/25 00:17:57;;;;;;;0.40;0.40;;;;;;;;;;4981168;28;20515;-89
2021/10/25 00:20:23;;;;;;;0.10;0.10;;;;;;;;;;4981205;28;20342;-89
2021/10/25 00:22:49;;;;;;;0.10;0.10;;;;;;;;;;4981517;28;20041;-89
2021/10/25 00:25:15;;;;;;;0.10;0.10;;;;;;;;;;4981412;28;20501;-89
2021/10/25 00:27:41;;;;;;;0.10;0.10;;;;;;;;;;4965016;28;20046;-89
2021/10/25 00:30:08;;;;;;;0.20;0.20;;;;;;;;;;4964299;28;20060;-89
2021/10/25 00:32:34;;;;;;;0.10;0.10;;;;;;;;;;4981219;28;20042;-89
2021/10/25 00:35:00;;;;;;;0.13;0.13;;;;;;;;;;4965184;28;20045;-90
2021/10/25 00:37:26;;;;;;;0.10;0.10;;;;;;;;;;4981268;28;20124;-90
2021/10/25 00:39:52;;;;;;;0.20;0.20;;;;;;;;;;4980993;28;20044;-89
2021/10/25 00:42:18;;;;;;;0.10;0.10;;;;;;;;;;4981225;28;20117;-89
2021/10/25 00:44:44;;;;;;;0.10;0.10;;;;;;;;;;4996839;28;20049;-89
2021/10/25 00:47:10;;;;;;;0.10;0.10;;;;;;;;;;4980970;28;20169;-89
2021/10/25 00:49:36;;;;;;;0.10;0.10;;;;;;;;;;4980867;28;20125;-88
2021/10/25 00:52:02;;;;;;;0.10;0.10;;;;;;;;;;4981095;28;20034;-89
2021/10/25 00:54:28;;;;;;;0.10;0.10;;;;;;;;;;4964510;28;20489;-90
2021/10/25 00:56:54;;;;;;;0.10;0.10;;;;;;;;;;4997039;28;20491;-89
2021/10/25 00:59:20;;;;;;;0.10;0.10;;;;;;;;;;4980488;28;20046;-89
2021/10/25 01:01:47;;;;;;;0.10;0.10;;;;;;;;;;4964679;28;20484;-89
2021/10/25 01:04:13;;;;;;;0.20;0.20;;;;;;;;;;4964567;28;20476;-89
2021/10/25 01:06:39;;;;;;;0.10;0.10;;;;;;;;;;4964463;28;20042;-89
2021/10/25 01:09:05;;;;;;;0.10;0.10;;;;;;;;;;4980472;28;20080;-90
2021/10/25 01:11:31;;;;;;;0.20;0.20;;;;;;;;;;4980440;28;20046;-89
2021/10/25 01:13:57;;;;;;;0.10;0.10;;;;;;;;;;4964171;28;20042;-89
2021/10/25 01:16:23;;;;;;;0.17;0.17;;;;;;;;;;4980411;28;20102;-90
2021/10/25 01:18:49;;;;;;;0.10;0.10;;;;;;;;;;4980435;28;20041;-89
2021/10/25 01:21:15;;;;;;;0.30;0.30;;;;;;;;;;4964114;28;20050;-89
2021/10/25 01:23:41;;;;;;;0.10;0.10;;;;;;;;;;4980139;28;20048;-90
2021/10/25 01:26:08;;;;;;;0.10;0.10;;;;;;;;;;4980393;28;20048;-89
2021/10/25 01:28:34;;;;;;;0.10;0.10;;;;;;;;;;4963785;28;20046;-89
2021/10/25 01:31:00;;;;;;;0.10;0.10;;;;;;;;;;4980592;28;20120;-89
2021/10/25 01:33:28;;;;;;;0.10;0.10;;;;;;;;;;4964213;28;20189;-89
2021/10/25 01:35:55;;;;;;;0.10;0.10;;;;;;;;;;4980150;28;20048;-89
2021/10/25 01:38:20;;;;;;;0.10;0.10;;;;;;;;;;4963868;28;20054;-89
2021/10/25 01:40:46;;;;;;;0.10;0.10;;;;;;;;;;4995118;28;20111;-89
2021/10/25 01:43:12;;;;;;;0.10;0.10;;;;;;;;;;4980054;28;20056;-89
2021/10/25 01:45:38;;;;;;;0.10;0.10;;;;;;;;;;4963925;28;20129;-89
2021/10/25 01:48:05;;;;;;;0.10;0.10;;;;;;;;;;4979634;28;20042;-88
2021/10/25 01:50:31;;;;;;;0.10;0.10;;;;;;;;;;4963630;28;20038;-89
2021/10/25 01:52:58;;;;;;;0.10;0.10;;;;;;;;;;4979581;28;20077;-89
2021/10/25 01:55:24;;;;;;;0.10;0.10;;;;;;;;;;4963688;28;20037;-89
2021/10/25 01:57:50;;;;;;;0.10;0.10;;;;;;;;;;4979647;28;20056;-89
2021/10/25 02:00:16;;;;;;;0.10;0.10;;;;;;;;;;4963364;28;20042;-89
2021/10/25 02:02:42;;;;;;;0.10;0.10;;;;;;;;;;4963284;28;20046;-89
2021/10/25 02:05:08;;;;;;;0.10;0.10;;;;;;;;;;4979236;28;20045;-89
2021/10/25 02:07:34;;;;;;;0.10;0.10;;;;;;;;;;4979599;28;20049;-89
2021/10/25 02:10:00;;;;;;;0.10;0.10;;;;;;;;;;4995409;28;20038;-89
2021/10/25 02:12:27;;;;;;;0.10;0.10;;;;;;;;;;4963090;28;20176;-88
2021/10/25 02:14:52;;;;;;;0.10;0.10;;;;;;;;;;4979562;28;20046;-89
2021/10/25 02:17:18;;;;;;;0.10;0.10;;;;;;;;;;4995290;28;20037;-89
2021/10/25 02:19:46;;;;;;;0.10;0.10;;;;;;;;;;4979354;28;20038;-89
2021/10/25 02:22:13;;;;;;;0.10;0.10;;;;;;;;;;4995377;28;20124;-89
2021/10/25 02:24:39;;;;;;;0.10;0.10;;;;;;;;;;4979308;28;20130;-89
2021/10/25 02:27:05;;;;;;;0.10;0.10;;;;;;;;;;4962951;28;20500;-90
2021/10/25 02:29:35;;;;;;;0.20;0.20;;;;;;;;;;4979048;28;20137;-89
2021/10/25 02:32:02;;;;;;;0.10;0.10;;;;;;;;;;4963347;28;20042;-89
2021/10/25 02:34:28;;;;;;;0.10;0.10;;;;;;;;;;4963014;28;20077;-89
2021/10/25 02:36:54;;;;;;;0.10;0.10;;;;;;;;;;4963129;28;20512;-89
2021/10/25 02:39:20;;;;;;;0.10;0.10;;;;;;;;;;4962700;28;20157;-89
2021/10/25 02:41:46;;;;;;;0.10;0.10;;;;;;;;;;4962644;28;20125;-88
2021/10/25 02:44:12;;;;;;;0.10;0.10;;;;;;;;;;4962846;28;20478;-88
2021/10/25 02:46:38;;;;;;;0.10;0.10;;;;;;;;;;4978629;28;20405;-88
2021/10/25 02:49:04;;;;;;;0.10;0.10;;;;;;;;;;4978712;28;20088;-89
2021/10/25 02:51:30;;;;;;;0.28;0.28;;;;;;;;;;4978551;28;20045;-92
2021/10/25 02:53:56;;;;;;;0.20;0.20;;;;;;;;;;4962876;28;20037;-88
2021/10/25 02:56:22;;;;;;;0.10;0.10;;;;;;;;;;4978626;28;20349;-88
2021/10/25 02:58:48;;;;;;;0.10;0.10;;;;;;;;;;4962471;28;20075;-89
2021/10/25 03:01:14;;;;;;;0.10;0.10;;;;;;;;;;4962721;28;20038;-88
2021/10/25 03:03:40;;;;;;;0.65;0.20;;;;;;;;;;4978628;28;20511;-89
2021/10/25 03:06:06;;;;;;;0.10;0.10;;;;;;;;;;4978562;28;20037;-89
2021/10/25 03:08:32;;;;;;;0.10;0.10;;;;;;;;;;4962342;28;20042;-88
2021/10/25 03:10:58;;;;;;;0.10;0.10;;;;;;;;;;4978647;28;20048;-88
2021/10/25 03:13:24;;;;;;;0.10;0.10;;;;;;;;;;4994781;28;20042;-88
2021/10/25 03:15:51;;;;;;;0.20;0.20;;;;;;;;;;4962254;28;20041;-89
2021/10/25 03:18:18;;;;;;;0.10;0.10;;;;;;;;;;4962666;28;20046;-88
2021/10/25 03:20:44;;;;;;;0.10;0.10;;;;;;;;;;4978192;28;20485;-89
2021/10/25 03:23:10;;;;;;;0.10;0.10;;;;;;;;;;4962425;28;20053;-91
2021/10/25 03:25:36;;;;;;;0.10;0.10;;;;;;;;;;4978728;28;20362;-90
2021/10/25 03:28:03;;;;;;;0.10;0.10;;;;;;;;;;4978494;28;20042;-90
2021/10/25 03:30:28;;;;;;;0.25;0.25;;;;;;;;;;4978554;28;20103;-90
2021/10/25 03:32:55;;;;;;;0.10;0.10;;;;;;;;;;4962481;28;20042;-90
2021/10/25 03:35:21;;;;;;;0.10;0.10;;;;;;;;;;4962570;28;20064;-90
2021/10/25 03:37:47;;;;;;;0.10;0.10;;;;;;;;;;4978591;28;20484;-90
2021/10/25 03:40:14;;;;;;;0.10;0.10;;;;;;;;;;4994707;28;20089;-90
2021/10/25 03:42:43;;;;;;;0.10;0.10;;;;;;;;;;4962295;28;20056;-90
2021/10/25 03:47:56;;;;;;;0.15;0.15;;;;;;;;;;4978953;28;20112;-90
2021/10/25 03:50:25;;;;;;;0.20;0.20;;;;;;;;;;4980262;28;20144;-90
2021/10/25 03:52:56;;;;;;;0.10;0.10;;;;;;;;;;4962457;28;20038;-90
2021/10/25 04:30:23;;;;;;;0.10;0.10;;;;;;;;;;4983262;28;20089;-90
2021/10/25 04:32:49;;;;;;;0.38;0.38;;;;;;;;;;4981285;28;20065;-89
2021/10/25 04:35:15;;;;;;;0.10;0.10;;;;;;;;;;4981194;28;20396;-90
2021/10/25 04:37:40;;;;;;;0.10;0.10;;;;;;;;;;4965060;28;20050;-90
2021/10/25 04:40:07;;;;;;;0.10;0.10;;;;;;;;;;4981243;28;20128;-90
2021/10/25 04:42:33;;;;;;;0.90;0.20;;;;;;;;;;4980910;28;20034;-90
2021/10/25 04:44:59;;;;;;;0.10;0.10;;;;;;;;;;4981108;28;20045;-90
2021/10/25 04:47:25;;;;;;;0.10;0.10;;;;;;;;;;4964761;28;20048;-90
2021/10/25 04:49:51;;;;;;;0.10;0.10;;;;;;;;;;4980872;28;20037;-90
2021/10/25 04:52:17;;;;;;;0.10;0.10;;;;;;;;;;4965114;28;20048;-90
2021/10/25 04:54:43;;;;;;;0.20;0.20;;;;;;;;;;4964630;28;20049;-90
2021/10/25 04:57:09;;;;;;;0.10;0.10;;;;;;;;;;4964955;28;20492;-90
2021/10/25 04:59:36;;;;;;;0.10;0.10;;;;;;;;;;4965173;28;20077;-91
2021/10/25 05:02:02;;;;;;;0.10;0.10;;;;;;;;;;4964689;28;20048;-90
2021/10/25 05:04:29;;;;;;;0.20;0.20;;;;;;;;;;4964853;28;20092;-91
2021/10/25 05:06:55;;;;;;;0.10;0.10;;;;;;;;;;4964394;28;20042;-90
2021/10/25 05:09:21;;;;;;;0.10;0.10;;;;;;;;;;4980291;28;20038;-90
2021/10/25 05:11:47;;;;;;;0.10;0.10;;;;;;;;;;4964356;28;20038;-90
2021/10/25 05:14:13;;;;;;;0.10;0.10;;;;;;;;;;4979852;28;20492;-89
2021/10/25 05:16:39;;;;;;;0.20;0.20;;;;;;;;;;4980154;28;20384;-91
2021/10/25 05:19:05;;;;;;;0.10;0.10;;;;;;;;;;4964291;28;20041;-90
2021/10/25 05:21:31;;;;;;;0.10;0.10;;;;;;;;;;4980032;28;20413;-91
2021/10/25 05:24:00;;;;;;;0.10;0.10;;;;;;;;;;4979989;28;20068;-90
2021/10/25 05:26:28;;;;;;;0.10;0.10;;;;;;;;;;4964399;28;20430;-90
2021/10/25 05:28:54;;;;;;;0.10;0.10;;;;;;;;;;4980341;28;20112;-91
2021/10/25 05:31:20;;;;;;;0.10;0.10;;;;;;;;;;4980221;28;20481;-91
2021/10/25 05:33:46;;;;;;;0.10;0.10;;;;;;;;;;4996338;28;20472;-89
2021/10/25 05:36:12;;;;;;;0.10;0.10;;;;;;;;;;4980363;28;20459;-91
2021/10/25 05:38:38;;;;;;;0.15;0.15;;;;;;;;;;4979947;28;20045;-90
2021/10/25 05:41:04;;;;;;;0.10;0.10;;;;;;;;;;4963978;28;20046;-90
2021/10/25 05:43:30;;;;;;;0.10;0.10;;;;;;;;;;4979856;28;20042;-90
2021/10/25 05:45:56;;;;;;;0.10;0.10;;;;;;;;;;4979917;28;20041;-91
2021/10/25 05:48:23;;;;;;;0.10;0.10;;;;;;;;;;4980243;28;20081;-92
2021/10/25 05:50:49;;;;;;;0.10;0.10;;;;;;;;;;4980060;28;20045;-92
2021/10/25 05:53:15;;;;;;;0.10;0.10;;;;;;;;;;4979914;28;20097;-91
2021/10/25 05:55:43;;;;;;;0.45;0.45;;;;;;;;;;4979651;28;20053;-91
2021/10/25 05:58:16;;;;;;;0.10;0.10;;;;;;;;;;4964101;28;20046;-92
2021/10/25 06:00:47;;;;;;;0.10;0.10;;;;;;;;;;4995981;28;20400;-91
2021/10/25 06:03:17;;;;;;;0.10;0.10;;;;;;;;;;4964091;28;20045;-91
2021/10/25 06:05:43;;;;;;;0.10;0.10;;;;;;;;;;4980303;28;20050;-92
2021/10/25 06:08:13;;;;;;;0.10;0.10;;;;;;;;;;4982294;28;20377;-94
2021/10/25 06:10:39;;;;;;;0.10;0.10;;;;;;;;;;4971599;28;20042;-93
2021/10/25 06:13:07;;;;;;;0.20;0.20;;;;;;;;;;4970731;28;20038;-93
2021/10/25 06:15:41;;;;;;;0.10;0.10;;;;;;;;;;4967155;28;20042;-91
2021/10/25 06:18:10;;;;;;;0.10;0.10;;;;;;;;;;4982850;28;20046;-92
2021/10/25 06:20:38;;;;;;;0.10;0.10;;;;;;;;;;4980248;28;20520;-91
2021/10/25 06:23:08;;;;;;;0.10;0.10;;;;;;;;;;4980217;28;20536;-91
2021/10/25 06:25:34;;;;;;;0.10;0.10;;;;;;;;;;4996080;28;20132;-94
2021/10/25 06:28:00;;;;;;;0.10;0.10;;;;;;;;;;4963143;28;20460;-91
2021/10/25 06:30:26;;;;;;;0.10;0.10;;;;;;;;;;4979812;28;20065;-95
2021/10/25 06:32:53;;;;;;;0.10;0.10;;;;;;;;;;4963905;28;20038;-93
2021/10/25 06:35:24;;;;;;;0.10;0.10;;;;;;;;;;4981161;28;20069;-94
2021/10/25 06:38:03;;;;;;;0.10;0.10;;;;;;;;;;4965912;28;20416;-95
2021/10/25 06:40:29;;;;;;;0.10;0.10;;;;;;;;;;4965830;28;20046;-93
2021/10/25 06:42:55;;;;;;;0.10;0.10;;;;;;;;;;4963881;28;20141;-94
2021/10/25 06:45:22;;;;;;;0.10;0.10;;;;;;;;;;4980938;28;20052;-91
2021/10/25 06:47:48;;;;;;;0.10;0.10;;;;;;;;;;4963342;28;20164;-90
2021/10/25 06:50:15;;;;;;;0.57;0.17;;;;;;;;;;4964048;28;20041;-96
2021/10/25 06:52:42;;;;;;;0.10;0.10;;;;;;;;;;4965385;28;20038;-90
2021/10/25 06:55:08;;;;;;;0.10;0.10;;;;;;;;;;4996048;28;20038;-95
2021/10/25 06:57:34;;;;;;;0.30;0.30;;;;;;;;;;4963550;28;20060;-92
2021/10/25 07:00:00;;;;;;;0.10;0.10;;;;;;;;;;4963384;28;20038;-91
2021/10/25 07:02:27;;;;;;;0.10;0.10;;;;;;;;;;4963284;28;20049;-91
2021/10/25 07:04:53;;;;;;;0.10;0.10;;;;;;;;;;4979487;28;20643;-92
2021/10/25 07:07:23;;;;;;;0.10;0.10;;;;;;;;;;4980217;28;20113;-89
2021/10/25 07:09:49;;;;;;;0.22;0.20;;;;;;;;;;4979236;28;20068;-91
2021/10/25 07:12:15;;;;;;;0.10;0.10;;;;;;;;;;4963429;28;20034;-88
2021/10/25 07:14:42;;;;;;;0.10;0.10;;;;;;;;;;4962640;28;20477;-89
2021/10/25 07:28:09;;;;;;;0.10;0.10;;;;;;;;;;4981604;28;20077;-92
2021/10/25 08:02:04;;;;;;;0.10;0.10;;;;;;;;;;4964857;28;20046;-88
2021/10/25 08:06:51;;;;;;;0.10;0.10;;;;;;;;;;4964730;28;20053;-89
2021/10/25 08:11:54;;;;;;;0.10;0.10;;;;;;;;;;4963054;28;20486;-89
2021/10/25 08:14:28;;;;;;;0.52;0.52;;;;;;;;;;4963052;28;20089;-89
2021/10/25 08:16:55;;;;;;;0.10;0.10;;;;;;;;;;4947182;28;20038;-90
2021/10/25 08:21:47;;;;;;;0.10;0.10;;;;;;;;;;4962453;28;20069;-88
2021/10/25 08:24:14;;;;;;;0.10;0.10;;;;;;;;;;4980708;28;20050;-88
2021/10/25 08:26:39;;;;;;;0.28;0.22;;;;;;;;;;5000868;28;20047;-90
2021/10/25 08:29:05;;;;;;;0.10;0.10;;;;;;;;;;4966765;28;20050;-89
2021/10/25 08:31:35;;;;;;;0.10;0.10;;;;;;;;;;4975260;28;20440;-91
2021/10/25 08:34:26;;;;;;;0.10;0.10;;;;;;;;;;4949170;28;20049;-89
2021/10/25 08:39:47;;;;;;;0.10;0.10;;;;;;;;;;4978291;28;20058;-91
2021/10/25 08:42:20;;;;;;;0.10;0.10;;;;;;;;;;4978068;28;20050;-92
2021/10/25 08:44:46;;;;;;;0.22;0.20;;;;;;;;;;4962341;28;20046;-92
2021/10/25 08:47:15;;;;;;;0.20;0.20;;;;;;;;;;4946426;28;20046;-94
2021/10/25 08:49:41;;;;;;;0.10;0.10;;;;;;;;;;4948337;28;20104;-95
2021/10/25 08:52:07;;;;;;;0.10;0.10;;;;;;;;;;4966218;28;20118;-93
2021/10/25 08:54:33;;;;;;;0.10;0.10;;;;;;;;;;4982508;28;20034;-94
2021/10/25 08:57:00;;;;;;;0.10;0.10;;;;;;;;;;4981783;28;20040;-91
2021/10/25 08:59:28;;;;;;;0.10;0.10;;;;;;;;;;4981967;28;20411;-92
2021/10/25 09:02:03;;;;;;;0.10;0.10;;;;;;;;;;4981581;28;20076;-92
2021/10/25 09:04:29;;;;;;;0.10;0.10;;;;;;;;;;4981681;28;20049;-93
2021/10/25 09:06:57;;;;;;;0.10;0.10;;;;;;;;;;4981273;28;20049;-92
2021/10/25 09:09:23;;;;;;;0.10;0.10;;;;;;;;;;4965867;28;20041;-92
2021/10/25 09:11:57;;;;;;;0.20;0.20;;;;;;;;;;4981476;28;20042;-92
2021/10/25 09:14:22;;;;;;;0.10;0.10;;;;;;;;;;4965456;28;20034;-94
2021/10/25 09:17:00;;;;;;;0.10;0.10;;;;;;;;;;4965825;28;20042;-94
2021/10/25 09:19:29;;;;;;;0.10;0.10;;;;;;;;;;4965259;28;20042;-92
2021/10/25 09:22:03;;;;;;;0.10;0.10;;;;;;;;;;4981119;28;20089;-95
2021/10/25 09:24:29;;;;;;;0.10;0.10;;;;;;;;;;4982075;28;20200;-94
2021/10/25 09:27:03;;;;;;;0.10;0.10;;;;;;;;;;4965773;28;20119;-96
2021/10/25 09:29:32;;;;;;;0.10;0.10;;;;;;;;;;4966181;28;20176;-94
2021/10/25 09:31:59;;;;;;;0.10;0.10;;;;;;;;;;4981824;28;20176;-95
2021/10/25 09:34:35;;;;;;;0.10;0.10;;;;;;;;;;4982055;28;20086;-96
2021/10/25 09:37:08;;;;;;;0.10;0.10;;;;;;;;;;4983844;28;20465;-95
2021/10/25 09:39:41;;;;;;;0.10;0.10;;;;;;;;;;4982147;28;20042;-94
2021/10/25 09:50:18;;;;;;;;;;;;;;;;;;;;;
2021/10/25 09:53:24;;;;;;;0.20;0.20;;;;;;;;;;4991212;28;20072;-96
2021/10/25 09:55:53;;;;;;;0.10;0.10;;;;;;;;;;4970292;28;20228;-93
2021/10/25 09:58:27;;;;;;;0.10;0.10;;;;;;;;;;4983535;28;20037;-94
2021/10/25 10:07:04;;;;;;;0.10;0.10;;;;;;;;;;4917974;29;20103;-95
2021/10/25 10:09:39;;;;;;;0.10;0.10;;;;;;;;;;4915063;28;20066;-93
2021/10/25 10:12:21;;;;;;;;;;;;;;;;;;;;;
2021/10/25 10:14:55;;;;;;;0.10;0.10;;;;;;;;;;4996872;28;20045;-91
2021/10/25 10:17:43;;;;;;;0.10;0.10;;;;;;;;;;4963941;28;20048;-93
2021/10/25 10:20:14;;;;;;;0.10;0.10;;;;;;;;;;4964495;28;20042;-93
2021/10/25 10:22:46;;;;;;;0.10;0.10;;;;;;;;;;4964791;28;20129;-93
2021/10/25 10:25:33;;;;;;;0.10;0.10;;;;;;;;;;4981894;28;20077;-92
2021/10/25 10:28:11;;;;;;;0.10;0.10;;;;;;;;;;5516726;23;20021;-96
2021/10/25 10:31:31;;;;;;;0.10;0.10;;;;;;;;;;4952159;28;20064;-94
2021/10/25 10:34:00;;;;;;;0.10;0.10;;;;;;;;;;4953808;28;20051;-92
2021/10/25 10:36:31;;;;;;;0.10;0.10;;;;;;;;;;4924685;29;20043;-95
2021/10/25 10:39:09;;;;;;;0.15;0.15;;;;;;;;;;4924059;29;20035;-93
2021/10/25 10:41:42;;;;;;;0.20;0.20;;;;;;;;;;4915321;29;20042;-96
2021/10/25 10:44:14;;;;;;;0.10;0.10;;;;;;;;;;4923197;29;20053;-96
2021/10/25 11:10:26;;;;;;;0.10;0.10;;;;;;;;;;4960429;28;20059;-93
2021/10/25 11:13:01;;;;;;;0.20;0.20;;;;;;;;;;4944638;28;20051;-94
2021/10/25 11:15:36;;;;;;;0.10;0.10;;;;;;;;;;4932526;28;20082;-95
2021/10/25 11:27:39;;;;;;;0.10;0.10;;;;;;;;;;5017365;22;20571;-95
2021/10/25 11:30:08;;;;;;;0.10;0.10;;;;;;;;;;4965716;28;20057;-94
2021/10/25 11:35:44;;;;;;;0.10;0.10;;;;;;;;;;4969187;28;20046;-94
2021/10/25 11:38:39;;;;;;;0.10;0.10;;;;;;;;;;4953997;28;20038;-92
2021/10/25 11:41:39;;;;;;;;;;;;;;;;;;;;;
2021/10/25 11:44:13;;;;;;;0.10;0.10;;;;;;;;;;5008390;28;20154;-95
2021/10/25 11:46:42;;;;;;;0.10;0.10;;;;;;;;;;4970541;28;20480;-95
2021/10/25 11:49:08;;;;;;;0.20;0.20;;;;;;;;;;4971535;28;20096;-94
2021/10/25 11:51:34;;;;;;;0.10;0.10;;;;;;;;;;4969223;28;20042;-93
2021/10/25 11:54:00;;;;;;;0.20;0.20;;;;;;;;;;4969747;28;20084;-95
2021/10/25 11:56:30;;;;;;;0.10;0.10;;;;;;;;;;4985382;28;20050;-95
2021/10/25 11:58:58;;;;;;;0.10;0.10;;;;;;;;;;4985783;28;20109;-96
2021/10/25 12:01:25;;;;;;;0.10;0.10;;;;;;;;;;4969604;28;20156;-94
2021/10/25 12:03:51;;;;;;;0.10;0.10;;;;;;;;;;4970002;28;20042;-94
2021/10/25 12:06:17;;;;;;;0.10;0.10;;;;;;;;;;4986075;28;20484;-94
2021/10/25 12:09:03;;;;;;;0.10;0.10;;;;;;;;;;4969785;28;20096;-92
2021/10/25 12:14:23;;;;;;;0.10;0.10;;;;;;;;;;4987399;28;20188;-94
2021/10/25 12:16:49;;;;;;;0.10;0.10;;;;;;;;;;4969695;28;20045;-94
2021/10/25 12:19:19;;;;;;;0.20;0.20;;;;;;;;;;4969636;28;20077;-95
2021/10/25 12:21:45;;;;;;;0.10;0.10;;;;;;;;;;4969632;28;20042;-92
2021/10/25 12:27:00;;;;;;;0.20;0.20;;;;;;;;;;5318123;22;20072;-92
2021/10/25 12:29:26;;;;;;;0.10;0.10;;;;;;;;;;4987540;28;20106;-94
2021/10/25 12:31:52;;;;;;;0.10;0.10;;;;;;;;;;4968094;28;20042;-94
2021/10/25 12:34:18;;;;;;;0.10;0.10;;;;;;;;;;4983179;28;20461;-90
2021/10/25 12:36:45;;;;;;;0.10;0.10;;;;;;;;;;4968862;28;20050;-94
2021/10/25 12:39:12;;;;;;;0.13;0.13;;;;;;;;;;4966518;28;20045;-94
2021/10/25 12:41:56;;;;;;;0.10;0.10;;;;;;;;;;4966234;28;20042;-95
2021/10/25 12:44:36;;;;;;;0.15;0.15;;;;;;;;;;4968656;28;20045;-93
2021/10/25 12:47:09;;;;;;;0.10;0.10;;;;;;;;;;4966693;28;20448;-94
2021/10/25 12:49:35;;;;;;;0.30;0.30;;;;;;;;;;4965622;28;20042;-95
2021/10/25 12:52:08;;;;;;;0.45;0.45;;;;;;;;;;4965481;28;20507;-94
2021/10/25 12:54:35;;;;;;;0.10;0.10;;;;;;;;;;4967382;28;20531;-91
2021/10/25 12:57:05;;;;;;;0.20;0.20;;;;;;;;;;4966241;28;20097;-93
2021/10/25 13:02:40;;;;;;;0.10;0.10;;;;;;;;;;5521608;22;20049;-92
2021/10/25 13:05:08;;;;;;;0.20;0.20;;;;;;;;;;5023427;23;20077;-93
2021/10/25 13:07:34;;;;;;;0.20;0.20;;;;;;;;;;4988466;28;20086;-92
2021/10/25 13:10:00;;;;;;;0.10;0.10;;;;;;;;;;4985496;28;20053;-95
2021/10/25 13:12:26;;;;;;;0.15;0.15;;;;;;;;;;4969188;28;20099;-96
2021/10/25 13:14:52;;;;;;;0.10;0.10;;;;;;;;;;4972249;28;20046;-94
2021/10/25 13:20:42;;;;;;;0.10;0.10;;;;;;;;;;5010298;28;20166;-95
2021/10/25 13:23:11;;;;;;;0.52;0.43;;;;;;;;;;4966500;28;20137;-93
2021/10/25 13:25:41;;;;;;;0.10;0.10;;;;;;;;;;4972628;28;20095;-91
2021/10/25 13:28:13;;;;;;;0.10;0.10;;;;;;;;;;4988794;28;20042;-96
2021/10/25 13:30:42;;;;;;;0.10;0.10;;;;;;;;;;4970477;28;20045;-96
2021/10/25 13:33:08;;;;;;;0.10;0.10;;;;;;;;;;4965580;28;20049;-95
2021/10/25 13:35:34;;;;;;;0.32;0.30;;;;;;;;;;4966933;28;20042;-95
2021/10/25 13:38:00;;;;;;;0.20;0.20;;;;;;;;;;4967155;28;20038;-93
2021/10/25 13:40:28;;;;;;;0.30;0.30;;;;;;;;;;4964379;28;20095;-91
2021/10/25 13:42:55;;;;;;;0.10;0.10;;;;;;;;;;4964298;28;20120;-93
2021/10/25 13:45:21;;;;;;;0.10;0.10;;;;;;;;;;4980831;28;20405;-93
2021/10/25 13:47:47;;;;;;;0.35;0.35;;;;;;;;;;4964849;28;20519;-93
2021/10/25 13:50:14;;;;;;;0.10;0.10;;;;;;;;;;4964918;28;20045;-93
2021/10/25 13:52:41;;;;;;;0.73;0.73;;;;;;;;;;4998158;28;20133;-96
2021/10/25 13:55:11;;;;;;;0.10;0.10;;;;;;;;;;4982415;28;20052;-93
2021/10/25 13:57:39;;;;;;;0.10;0.10;;;;;;;;;;4970436;28;20030;-95
2021/10/25 14:00:08;;;;;;;0.20;0.20;;;;;;;;;;4945152;28;20046;-95
2021/10/25 14:02:37;;;;;;;0.10;0.10;;;;;;;;;;4945210;28;20050;-93
2021/10/25 14:05:04;;;;;;;0.10;0.10;;;;;;;;;;4944653;28;20189;-94
2021/10/25 14:07:34;;;;;;;0.10;0.10;;;;;;;;;;4947843;28;20042;-94
2021/10/25 14:10:07;;;;;;;0.10;0.10;;;;;;;;;;4948613;28;20043;-93
2021/10/25 14:12:36;;;;;;;0.10;0.10;;;;;;;;;;4945052;28;20046;-93
2021/10/25 14:17:38;;;;;;;0.10;0.10;;;;;;;;;;4962151;28;20425;-95
2021/10/25 14:20:05;;;;;;;0.20;0.20;;;;;;;;;;4944784;28;20085;-94
2021/10/25 14:22:31;;;;;;;0.10;0.10;;;;;;;;;;4945047;28;20183;-94
2021/10/25 14:24:57;;;;;;;0.15;0.15;;;;;;;;;;4944540;28;20053;-93
2021/10/25 14:27:23;;;;;;;0.10;0.10;;;;;;;;;;4964744;28;20030;-96
2021/10/25 14:48:19;;;;;;;0.10;0.10;;;;;;;;;;5576467;23;20050;-96
2021/10/25 14:53:40;;;;;;;0.10;0.10;;;;;;;;;;4962842;28;20104;-94
2021/10/25 14:56:09;;;;;;;0.10;0.10;;;;;;;;;;4946084;28;20041;-94
2021/10/25 14:58:38;;;;;;;0.10;0.10;;;;;;;;;;4960018;28;20038;-93
2021/10/25 15:01:04;;;;;;;0.10;0.10;;;;;;;;;;4960061;28;20042;-89
2021/10/25 15:03:30;;;;;;;0.20;0.20;;;;;;;;;;4959466;28;20054;-89
2021/10/25 15:05:58;;;;;;;0.10;0.10;;;;;;;;;;4959159;28;20143;-89
2021/10/25 15:08:25;;;;;;;0.10;0.10;;;;;;;;;;4943855;28;20050;-89
2021/10/25 15:10:51;;;;;;;0.20;0.20;;;;;;;;;;4959080;28;20073;-89
2021/10/25 15:13:17;;;;;;;0.10;0.10;;;;;;;;;;4959241;28;20478;-89
2021/10/25 15:15:43;;;;;;;0.10;0.10;;;;;;;;;;4942674;28;20110;-88
2021/10/25 15:18:09;;;;;;;0.10;0.10;;;;;;;;;;4943498;28;20064;-91
2021/10/25 15:20:35;;;;;;;0.10;0.10;;;;;;;;;;4944090;28;20042;-92
2021/10/25 15:23:01;;;;;;;0.10;0.10;;;;;;;;;;4943360;28;20038;-91
2021/10/25 15:25:34;;;;;;;0.10;0.10;;;;;;;;;;4959121;28;20046;-91
2021/10/25 15:28:09;;;;;;;0.10;0.10;;;;;;;;;;4960774;28;20046;-94
2021/10/25 15:30:37;;;;;;;0.10;0.10;;;;;;;;;;4952024;28;20038;-91
2021/10/25 15:33:04;;;;;;;0.10;0.10;;;;;;;;;;4943797;28;20405;-93
2021/10/25 15:35:30;;;;;;;0.20;0.20;;;;;;;;;;4946980;28;20066;-93
2021/10/25 15:37:57;;;;;;;0.10;0.10;;;;;;;;;;4959795;28;20038;-91
2021/10/25 15:40:26;;;;;;;0.10;0.10;;;;;;;;;;4943849;28;20043;-92
2021/10/25 15:42:52;;;;;;;0.10;0.10;;;;;;;;;;4958090;28;20050;-91
2021/10/25 15:45:18;;;;;;;0.10;0.10;;;;;;;;;;4943490;28;20065;-94
2021/10/25 15:47:44;;;;;;;0.10;0.10;;;;;;;;;;4943334;28;20046;-93
2021/10/25 15:50:11;;;;;;;0.10;0.10;;;;;;;;;;4959523;28;20094;-91
2021/10/25 15:52:37;;;;;;;0.20;0.20;;;;;;;;;;4943534;28;20061;-91
2021/10/25 15:55:03;;;;;;;0.20;0.20;;;;;;;;;;4959673;28;20053;-93
2021/10/25 15:57:30;;;;;;;0.10;0.10;;;;;;;;;;4944129;28;20038;-95
2021/10/25 16:00:07;;;;;;;0.10;0.10;;;;;;;;;;4945740;28;20062;-95
2021/10/25 16:02:35;;;;;;;0.10;0.10;;;;;;;;;;4950251;28;20042;-93
2021/10/25 16:05:04;;;;;;;0.10;0.10;;;;;;;;;;4949000;28;20128;-91
2021/10/25 16:07:31;;;;;;;0.10;0.10;;;;;;;;;;4962993;28;20091;-92
2021/10/25 16:09:57;;;;;;;0.10;0.10;;;;;;;;;;4962354;28;20137;-89
2021/10/25 16:12:23;;;;;;;0.10;0.10;;;;;;;;;;4946388;28;20038;-92
2021/10/25 16:14:49;;;;;;;0.10;0.10;;;;;;;;;;4962664;28;20049;-92
2021/10/25 16:17:15;;;;;;;0.10;0.10;;;;;;;;;;4962626;28;20040;-91
2021/10/25 16:19:49;;;;;;;0.10;0.10;;;;;;;;;;4947258;28;20038;-90
2021/10/25 16:22:15;;;;;;;0.10;0.10;;;;;;;;;;4962681;28;20045;-91
2021/10/25 16:24:41;;;;;;;0.10;0.10;;;;;;;;;;4946531;28;20046;-93
2021/10/25 16:27:07;;;;;;;0.10;0.10;;;;;;;;;;4946408;28;20081;-92
2021/10/25 16:29:33;;;;;;;0.17;0.17;;;;;;;;;;4946823;28;20070;-91
2021/10/25 16:31:59;;;;;;;0.10;0.10;;;;;;;;;;4962294;28;20038;-90
2021/10/25 16:34:25;;;;;;;0.10;0.10;;;;;;;;;;4962181;28;20129;-91
2021/10/25 16:36:51;;;;;;;0.10;0.10;;;;;;;;;;4946250;28;20038;-91
2021/10/25 16:39:17;;;;;;;0.17;0.17;;;;;;;;;;4946142;28;20573;-92
2021/10/25 16:41:43;;;;;;;0.10;0.10;;;;;;;;;;4962262;28;20046;-94
2021/10/25 16:44:09;;;;;;;0.10;0.10;;;;;;;;;;4946909;28;20053;-93
2021/10/25 16:46:35;;;;;;;0.15;0.15;;;;;;;;;;4946640;28;20046;-94
2021/10/25 16:49:09;;;;;;;0.20;0.20;;;;;;;;;;4946421;28;20054;-92
2021/10/25 16:51:40;;;;;;;0.10;0.10;;;;;;;;;;4947257;28;20038;-93
2021/10/25 17:10:14;;;;;;;0.10;0.10;;;;;;;;;;4963327;28;20089;-92
2021/10/25 17:12:40;;;;;;;0.10;0.10;;;;;;;;;;4945436;28;20054;-92
2021/10/25 17:15:06;;;;;;;0.10;0.10;;;;;;;;;;4945714;28;20038;-91
2021/10/25 17:17:32;;;;;;;0.10;0.10;;;;;;;;;;4961545;28;20045;-90
2021/10/25 17:19:58;;;;;;;0.10;0.10;;;;;;;;;;4977715;28;20038;-94
2021/10/25 17:22:24;;;;;;;0.10;0.10;;;;;;;;;;4963718;28;20490;-91
2021/10/25 17:24:51;;;;;;;0.10;0.10;;;;;;;;;;4945037;28;20088;-92
2021/10/25 17:27:18;;;;;;;0.10;0.10;;;;;;;;;;4945249;28;20175;-93
2021/10/25 17:29:44;;;;;;;0.10;0.10;;;;;;;;;;4961650;28;20057;-92
2021/10/25 17:32:15;;;;;;;0.10;0.10;;;;;;;;;;4945438;28;20132;-92
2021/10/25 17:34:41;;;;;;;0.10;0.10;;;;;;;;;;4948528;28;20542;-95
2021/10/25 17:37:07;;;;;;;0.17;0.17;;;;;;;;;;4946481;28;20038;-93
2021/10/25 17:39:33;;;;;;;0.10;0.10;;;;;;;;;;4945822;28;20068;-94
2021/10/25 17:42:03;;;;;;;0.10;0.10;;;;;;;;;;4945716;28;20096;-93
2021/10/25 17:44:29;;;;;;;0.10;0.10;;;;;;;;;;4946580;28;20054;-94
2021/10/25 17:46:55;;;;;;;0.10;0.10;;;;;;;;;;4945522;28;20048;-93
2021/10/25 17:49:21;;;;;;;0.10;0.10;;;;;;;;;;4945225;28;20050;-95
2021/10/25 17:51:49;;;;;;;1.00;0.15;;;;;;;;;;4945876;28;20046;-90
2021/10/25 17:54:15;;;;;;;0.10;0.10;;;;;;;;;;4961282;28;20049;-93
2021/10/25 17:56:41;;;;;;;0.10;0.10;;;;;;;;;;4945023;28;20073;-92
2021/10/25 17:59:07;;;;;;;0.10;0.10;;;;;;;;;;4945135;28;20038;-92
2021/10/25 18:01:34;;;;;;;0.10;0.10;;;;;;;;;;4945124;28;20042;-93
2021/10/25 18:04:00;;;;;;;0.10;0.10;;;;;;;;;;4945102;28;20086;-93